EPWR/WRO METAR and TAF weather

Enter ICAO airport designator
Station Type Date Time Source
EPWR METAR 2019/02/23 03:30 UTC NOAA

EPWR 230330Z 33003KT CAVOK M08/M10 Q1045


Station Type Date Time Source
EPWR Decoded METAR 2019/02/23 03:30 UTC NOAA

Wroclaw Ii, Poland (EPWR) 51-06N 016-53E 121M
Feb 22, 2019 - 10:30 PM EST / 2019.02.23 0330 UTC
Wind: from the NNW (330 degrees) at 3 MPH (3 KT):0
Visibility: greater than 7 mile(s):0
Temperature: 17 F (-8 C)
Dew Point: 14 F (-10 C)
Relative Humidity: 85%
Pressure (altimeter): 30.86 in. Hg (1045 hPa)
ob: EPWR 230330Z 33003KT CAVOK M08/M10 Q1045
cycle: 3

Station Type Date Time Source
EPWR TAF 2019/02/23 03:36 UTC NOAA

TAF EPWR 230230Z 2303/2403 VRB02KT CAVOK


Example: see airport list